This is the latest recevied weather packets stored in our database for station/object OE3TEC-15. If no packets are shown the sender has not sent any weather packets the latest 1 day(s).
| Time | Temp. | Humidity | Pressure | Rain* | Wind** | Luminosity | Snow |
|---|---|---|---|---|---|---|---|
| 1836274818 | 10° C | 95% | 1025.1 hPa | 0 mm | 0 m/s | 0 W/m² | - |
| 1836274210 | 10° C | 96% | 1025.2 hPa | 0 mm | 0 m/s | 0 W/m² | - |
| 1778040192 | 13.33° C | 82% | 1009.2 hPa | 0 mm | 1.34 m/s, 236° | 15 W/m² | - |
| 1778039584 | 13.33° C | 83% | 1008.9 hPa | 0 mm | 1.34 m/s, 236° | 11 W/m² | - |
| 1778038976 | 12.78° C | 83% | 1009.1 hPa | 0 mm | 0 m/s | 7 W/m² | - |
| 1778038370 | 13.33° C | 80% | 1009.1 hPa | 0 mm | 0 m/s | 4 W/m² | - |
| 1778037762 | 12.78° C | 82% | 1008.9 hPa | 0 mm | 0 m/s | 1 W/m² | - |
| 1778037154 | 12.78° C | 80% | 1009.1 hPa | 0 mm | 0 m/s | 0 W/m² | - |
| 1778036547 | 13.89° C | 77% | 1009.1 hPa | 0 mm | 0 m/s | 0 W/m² | - |
| 1778035939 | 13.89° C | 77% | 1009.1 hPa | 0 mm | 0 m/s | 0 W/m² | - |
| 1778035332 | 13.89° C | 75% | 1009.1 hPa | 0 mm | 0.45 m/s, 221° | 0 W/m² | - |
| 1778034725 | 13.89° C | 77% | 1009 hPa | 0 mm | 0.45 m/s, 222° | 0 W/m² | - |
| 1778034118 | 13.33° C | 77% | 1009 hPa | 0 mm | 0.45 m/s, 219° | 0 W/m² | - |
| 1778033512 | 15° C | 72% | 1008.8 hPa | 0 mm | 0.89 m/s, 227° | 0 W/m² | - |
| 1778032904 | 16.11° C | 69% | 1009.1 hPa | 0 mm | 1.34 m/s, 241° | 0 W/m² | - |
| 1778032297 | 16.67° C | 67% | 1008.8 hPa | 0 mm | 1.79 m/s, 244° | 0 W/m² | - |
| 1778031689 | 16.67° C | 67% | 1008.9 hPa | 0 mm | 1.79 m/s, 244° | 0 W/m² | - |
| 1778031082 | 16.67° C | 66% | 1008.7 hPa | 0 mm | 1.79 m/s, 243° | 0 W/m² | - |
| 1778030475 | 16.67° C | 64% | 1008.7 hPa | 0 mm | 2.68 m/s, 250° | 0 W/m² | - |
| 1778029868 | 16.67° C | 64% | 1008.8 hPa | 0 mm | 2.24 m/s, 243° | 0 W/m² | - |
| 1778029260 | 16.67° C | 64% | 1008.6 hPa | 0 mm | 1.79 m/s, 241° | 0 W/m² | - |
| 1778028652 | 16.67° C | 64% | 1008.6 hPa | 0 mm | 1.79 m/s, 241° | 0 W/m² | - |
| 1778028047 | 16.11° C | 65% | 1008.3 hPa | 0 mm | 1.34 m/s, 239° | 0 W/m² | - |
| 1778027438 | 13.33° C | 75% | 1008.1 hPa | 0 mm | 0 m/s | 0 W/m² | - |
| 1778026832 | 13.89° C | 73% | 1007.9 hPa | 0 mm | 0 m/s | 0 W/m² | - |
* Rain latest hour (hover to see other rain measurements)
** Current wind speed in m/s (hover to see current wind gust speed)